Time;durP1;ratioP1;P1;durP2;ratioP2;P2;SDS_P1;SDS_P2;PMS_P1;PMS_P2;Temp;Humidity;BMP_temperature;BMP_pressure;BME280_temperature;BME280_humidity;BME280_pressure;Samples;Min_cycle;Max_cycle;Signal;HPM_P1;HPM_P2
2021/09/02 00:01:30;;;;;;;6.07;3.15;;;;;;;30.64;27.63;98716.84;5087556;28;20024;-85
2021/09/02 00:03:56;;;;;;;5.55;3.75;;;;;;;30.20;28.03;98715.28;5088018;28;20032;-85
2021/09/02 00:06:22;;;;;;;4.60;3.03;;;;;;;30.45;27.69;98720.84;5086802;28;20033;-85
2021/09/02 00:08:48;;;;;;;3.75;2.97;;;;;;;30.69;27.39;98709.81;5089625;28;20028;-86
2021/09/02 00:11:14;;;;;;;4.28;3.05;;;;;;;30.61;27.33;98717.81;5093500;28;20047;-85
2021/09/02 00:13:40;;;;;;;3.60;2.83;;;;;;;30.82;27.09;98712.53;5092013;28;20036;-86
2021/09/02 00:16:07;;;;;;;7.15;2.88;;;;;;;31.05;26.53;98717.72;5090085;28;20115;-85
2021/09/02 00:18:33;;;;;;;4.18;2.60;;;;;;;31.16;26.50;98712.41;5093024;28;20452;-86
2021/09/02 00:20:59;;;;;;;4.15;2.55;;;;;;;31.35;26.28;98717.66;5092937;28;20032;-86
2021/09/02 00:23:25;;;;;;;3.78;2.45;;;;;;;31.23;26.22;98720.63;5100734;28;20467;-85
2021/09/02 00:25:51;;;;;;;3.10;2.38;;;;;;;31.21;26.36;98721.09;5085486;28;20036;-85
2021/09/02 00:28:19;;;;;;;3.38;2.35;;;;;;;31.22;26.51;98721.88;5086350;28;20040;-86
2021/09/02 00:30:45;;;;;;;3.97;2.53;;;;;;;31.04;26.66;98722.59;5086957;28;20024;-86
2021/09/02 00:33:16;;;;;;;5.05;2.35;;;;;;;30.89;26.80;98726.47;5089632;28;20028;-86
2021/09/02 00:35:42;;;;;;;4.47;2.75;;;;;;;30.99;26.79;98733.78;5094109;28;20117;-86
2021/09/02 00:38:08;;;;;;;5.97;2.85;;;;;;;30.96;26.83;98727.00;5094921;28;20032;-86
2021/09/02 00:40:35;;;;;;;4.65;2.97;;;;;;;30.66;27.17;98734.22;5091718;28;20847;-86
2021/09/02 00:43:01;;;;;;;4.85;2.72;;;;;;;30.87;26.79;98729.75;5096388;28;20032;-86
2021/09/02 00:45:27;;;;;;;5.25;3.05;;;;;;;31.07;26.78;98735.06;5099203;28;20044;-86
2021/09/02 00:47:53;;;;;;;4.75;2.38;;;;;;;31.25;26.24;98732.31;5096550;28;20024;-86
2021/09/02 00:50:19;;;;;;;4.95;2.85;;;;;;;31.08;26.63;98731.78;5090245;28;20117;-85
2021/09/02 00:52:46;;;;;;;5.63;2.95;;;;;;;30.86;27.00;98733.03;5096902;28;20065;-85
2021/09/02 00:55:12;;;;;;;3.60;2.20;;;;;;;30.69;27.07;98732.50;5070573;28;20032;-86
2021/09/02 00:57:38;;;;;;;4.45;3.03;;;;;;;30.13;27.93;98741.03;5093938;28;20441;-85
2021/09/02 01:00:14;;;;;;;7.20;3.50;;;;;;;30.15;27.96;98734.91;5091611;28;20093;-85
2021/09/02 01:02:42;;;;;;;5.45;3.50;;;;;;;30.10;28.00;98739.13;5099258;28;20023;-85
2021/09/02 01:05:09;;;;;;;5.35;3.25;;;;;;;30.30;27.76;98733.94;5092923;28;20457;-86
2021/09/02 01:07:36;;;;;;;4.85;2.90;;;;;;;30.22;27.89;98743.97;5097430;28;20067;-85
2021/09/02 01:10:05;;;;;;;4.95;2.90;;;;;;;30.60;27.27;98738.09;5096419;28;20055;-86
2021/09/02 01:12:38;;;;;;;4.38;3.10;;;;;;;30.48;27.33;98739.75;5089038;28;20495;-85
2021/09/02 01:15:15;;;;;;;4.82;3.30;;;;;;;30.50;27.52;98739.31;5094807;28;20024;-86
2021/09/02 01:17:45;;;;;;;6.22;2.50;;;;;;;30.56;27.36;98735.41;5096271;28;20453;-85
2021/09/02 01:20:14;;;;;;;;;;;;;;;30.78;27.06;98741.81;5090809;28;20083;-85
2021/09/02 01:22:42;;;;;;;3.70;2.85;;;;;;;30.91;26.64;98740.97;5092207;28;19987;-85
2021/09/02 01:25:13;;;;;;;4.53;3.08;;;;;;;30.98;26.68;98738.66;5104026;28;20082;-85
2021/09/02 01:27:41;;;;;;;7.65;4.30;;;;;;;31.03;26.45;98735.22;5090121;28;20398;-85
2021/09/02 01:30:11;;;;;;;4.47;3.28;;;;;;;31.02;26.42;98736.47;5092269;28;20035;-85
2021/09/02 01:32:39;;;;;;;5.60;2.85;;;;;;;30.87;26.90;98734.63;5095048;28;20394;-85
2021/09/02 01:35:08;;;;;;;4.70;2.90;;;;;;;30.36;27.63;98732.13;5098210;28;20059;-85
2021/09/02 01:37:41;;;;;;;4.57;3.50;;;;;;;30.51;27.24;98729.53;5096656;28;20034;-85
2021/09/02 01:40:17;;;;;;;4.53;2.88;;;;;;;30.44;27.41;98730.59;5097878;28;20067;-85
2021/09/02 01:42:44;;;;;;;3.88;2.35;;;;;;;30.67;27.08;98732.94;5095200;28;20056;-85
2021/09/02 01:45:10;;;;;;;6.30;2.67;;;;;;;30.76;26.88;98729.34;5095247;28;20474;-85
2021/09/02 01:47:37;;;;;;;4.65;2.38;;;;;;;30.46;27.34;98728.09;5094161;28;20499;-85
2021/09/02 01:50:09;;;;;;;4.25;2.92;;;;;;;30.50;27.20;98725.91;5090005;28;20496;-85
2021/09/02 01:52:36;;;;;;;3.25;2.45;;;;;;;30.53;27.18;98724.97;5089084;28;20038;-85
2021/09/02 01:55:04;;;;;;;4.47;2.88;;;;;;;30.57;26.94;98733.38;5093268;28;20167;-86
2021/09/02 01:57:31;;;;;;;3.70;3.00;;;;;;;31.04;26.30;98721.81;5091867;28;20020;-86
2021/09/02 01:59:57;;;;;;;3.83;2.45;;;;;;;31.01;26.54;98720.72;5093202;28;20082;-85
2021/09/02 02:02:23;;;;;;;4.15;2.25;;;;;;;31.16;26.23;98720.91;5090664;28;20066;-86
2021/09/02 02:04:49;;;;;;;4.78;2.30;;;;;;;31.18;26.35;98719.19;5089765;28;20032;-85
2021/09/02 02:07:15;;;;;;;5.78;2.92;;;;;;;30.89;26.52;98724.44;5093624;28;20147;-85
2021/09/02 02:09:42;;;;;;;4.95;2.55;;;;;;;30.85;26.62;98714.47;5073627;28;20392;-85
2021/09/02 02:12:08;;;;;;;5.05;2.47;;;;;;;30.65;26.81;98718.44;5092782;28;20057;-85
2021/09/02 02:14:36;;;;;;;6.40;3.42;;;;;;;30.47;27.12;98721.19;5085505;28;20787;-85
2021/09/02 02:17:02;;;;;;;3.25;2.35;;;;;;;30.37;27.20;98722.38;5092389;28;20488;-85
2021/09/02 02:19:28;;;;;;;4.55;2.65;;;;;;;30.39;27.10;98721.88;5091648;28;20048;-85
2021/09/02 02:21:54;;;;;;;4.85;2.60;;;;;;;30.61;26.78;98717.00;5066437;28;20123;-85
2021/09/02 02:24:20;;;;;;;7.40;3.63;;;;;;;30.35;27.02;98713.53;5084068;28;20066;-85
2021/09/02 02:26:46;;;;;;;5.32;2.85;;;;;;;30.59;26.71;98708.19;5092509;28;20036;-85
2021/09/02 02:29:12;;;;;;;6.30;3.20;;;;;;;30.73;26.51;98708.44;5101010;28;20040;-85
2021/09/02 02:31:38;;;;;;;4.38;3.30;;;;;;;30.69;26.37;98715.50;5092675;28;20114;-86
2021/09/02 02:34:04;;;;;;;3.95;2.95;;;;;;;30.25;26.80;98717.50;5097002;28;20063;-85
2021/09/02 02:36:30;;;;;;;8.45;4.22;;;;;;;29.48;28.10;98717.44;5091265;28;20476;-85
2021/09/02 02:38:58;;;;;;;4.22;3.05;;;;;;;29.78;27.68;98711.16;5095576;28;20077;-85
2021/09/02 02:41:25;;;;;;;7.32;3.45;;;;;;;29.54;28.16;98718.44;5093304;28;20084;-85
2021/09/02 02:43:51;;;;;;;5.38;3.33;;;;;;;29.89;27.53;98723.69;5093810;28;20020;-85
2021/09/02 02:46:17;;;;;;;4.63;3.30;;;;;;;29.76;27.67;98722.13;5096057;28;20066;-85
2021/09/02 02:48:43;;;;;;;4.30;3.58;;;;;;;29.22;28.48;98722.34;5093505;28;20048;-85
2021/09/02 02:51:10;;;;;;;5.43;3.65;;;;;;;29.56;28.15;98727.25;5092937;28;20035;-85
2021/09/02 02:53:36;;;;;;;5.72;4.00;;;;;;;29.52;28.10;98729.44;5096049;28;20094;-85
2021/09/02 02:56:02;;;;;;;6.70;3.72;;;;;;;29.83;27.69;98728.34;5100577;28;20036;-85
2021/09/02 02:58:28;;;;;;;5.28;3.70;;;;;;;29.99;27.46;98724.56;5096520;28;20028;-85
2021/09/02 03:00:54;;;;;;;6.00;4.20;;;;;;;29.96;27.49;98717.78;5092071;28;20043;-85
2021/09/02 03:03:20;;;;;;;6.93;3.97;;;;;;;29.86;27.60;98723.81;5066725;28;20052;-85
2021/09/02 03:05:46;;;;;;;5.45;3.47;;;;;;;29.81;28.08;98724.38;5092010;28;20093;-85
2021/09/02 03:08:12;;;;;;;5.05;3.20;;;;;;;29.82;27.92;98728.81;5101662;28;20036;-85
2021/09/02 03:10:38;;;;;;;6.13;4.07;;;;;;;29.57;28.42;98723.97;5092813;28;20047;-85
2021/09/02 03:13:04;;;;;;;8.70;4.40;;;;;;;29.78;28.00;98728.16;5095881;28;20387;-85
2021/09/02 03:15:30;;;;;;;4.05;2.92;;;;;;;30.03;27.69;98716.72;5076988;28;20070;-85
2021/09/02 03:17:57;;;;;;;7.15;4.88;;;;;;;29.55;28.51;98720.00;5087714;28;20143;-86
2021/09/02 03:20:23;;;;;;;7.65;4.40;;;;;;;29.78;27.93;98723.25;5090623;28;20044;-85
2021/09/02 03:22:49;;;;;;;8.80;4.00;;;;;;;29.74;28.14;98735.94;5084481;28;20150;-85
2021/09/02 03:25:16;;;;;;;8.88;4.57;;;;;;;29.19;28.99;98731.72;5090009;28;20672;-85
2021/09/02 03:27:42;;;;;;;6.65;4.72;;;;;;;29.29;28.75;98725.72;5092717;28;20046;-85
2021/09/02 03:30:10;;;;;;;9.43;5.05;;;;;;;29.29;28.90;98728.53;5089260;28;20036;-85
2021/09/02 03:32:36;;;;;;;7.88;4.82;;;;;;;29.14;29.02;98732.28;5090377;28;20037;-84
2021/09/02 03:35:04;;;;;;;6.72;4.65;;;;;;;28.94;29.50;98731.72;5096720;28;20032;-85
2021/09/02 03:37:30;;;;;;;6.53;4.18;;;;;;;29.32;28.88;98733.31;5094341;28;20059;-85
2021/09/02 03:39:56;;;;;;;6.25;4.15;;;;;;;29.56;28.52;98733.72;5087017;28;20036;-85
2021/09/02 03:42:22;;;;;;;7.07;4.63;;;;;;;29.77;28.35;98732.22;5055992;28;20033;-85
2021/09/02 03:44:48;;;;;;;7.28;4.55;;;;;;;29.32;29.01;98736.13;5091102;28;20043;-85
2021/09/02 03:47:14;;;;;;;7.10;4.13;;;;;;;29.51;28.70;98741.97;5093170;28;20431;-85
2021/09/02 03:49:40;;;;;;;8.30;5.03;;;;;;;29.55;28.78;98753.97;5090697;28;20372;-85
2021/09/02 03:52:07;;;;;;;5.70;3.67;;;;;;;29.97;28.16;98752.53;5088212;28;20479;-85
2021/09/02 03:54:33;;;;;;;9.68;5.85;;;;;;;29.59;28.76;98749.81;5092567;28;20028;-85
2021/09/02 03:56:59;;;;;;;6.20;4.72;;;;;;;29.26;29.18;98756.97;5078961;28;20499;-85
2021/09/02 03:59:25;;;;;;;7.82;5.45;;;;;;;29.75;28.35;98746.81;5094472;28;20111;-85
2021/09/02 04:01:51;;;;;;;7.38;5.00;;;;;;;29.45;28.84;98752.31;5087124;28;20059;-85
2021/09/02 04:04:17;;;;;;;7.47;4.65;;;;;;;29.92;28.14;98750.31;5091361;28;20031;-86
2021/09/02 04:06:44;;;;;;;5.63;4.18;;;;;;;29.87;28.45;98757.31;5100574;28;20028;-85
2021/09/02 04:09:10;;;;;;;5.85;4.95;;;;;;;29.47;29.01;98758.31;5092180;28;20020;-85
2021/09/02 04:11:36;;;;;;;7.82;4.95;;;;;;;29.66;28.66;98760.09;5093651;28;20225;-85
2021/09/02 04:14:02;;;;;;;8.77;5.57;;;;;;;29.85;28.55;98756.22;5093413;28;20028;-85
2021/09/02 04:16:28;;;;;;;7.32;4.93;;;;;;;29.87;28.43;98757.31;5077893;28;20105;-85
2021/09/02 04:18:54;;;;;;;8.05;5.13;;;;;;;30.01;28.29;98764.53;5083777;28;20046;-85
2021/09/02 04:21:21;;;;;;;8.68;4.13;;;;;;;30.05;28.54;98762.38;5089463;28;20490;-85
2021/09/02 04:23:49;;;;;;;8.55;4.97;;;;;;;29.37;29.13;98766.69;5086895;28;20032;-85
2021/09/02 04:26:15;;;;;;;8.10;5.05;;;;;;;29.78;28.49;98762.13;5085658;28;20051;-85
2021/09/02 04:28:41;;;;;;;6.78;4.78;;;;;;;29.92;28.56;98778.63;5089122;28;20020;-85
2021/09/02 04:31:08;;;;;;;9.13;5.65;;;;;;;29.43;29.24;98770.50;5086148;28;20036;-85
2021/09/02 04:33:34;;;;;;;9.55;5.68;;;;;;;29.40;29.04;98774.28;5070567;28;20028;-85
2021/09/02 04:36:00;;;;;;;7.25;4.68;;;;;;;29.89;28.59;98766.16;5087953;28;20833;-85
2021/09/02 04:38:26;;;;;;;7.45;5.53;;;;;;;29.75;28.90;98763.00;5089792;28;20028;-85
2021/09/02 04:40:52;;;;;;;8.43;5.43;;;;;;;29.66;28.96;98769.38;5091181;28;20032;-85
2021/09/02 04:43:18;;;;;;;8.50;5.40;;;;;;;30.09;28.38;98772.31;5088803;28;20020;-85
2021/09/02 04:45:45;;;;;;;8.10;5.78;;;;;;;29.88;28.65;98772.28;5087135;28;20544;-84
2021/09/02 04:48:15;;;;;;;11.07;5.28;;;;;;;30.10;28.49;98778.78;5087978;28;20391;-85
2021/09/02 04:50:43;;;;;;;7.55;5.22;;;;;;;29.83;29.10;98779.31;5086201;28;20032;-85
2021/09/02 04:53:09;;;;;;;8.63;5.85;;;;;;;29.94;28.70;98787.44;5089325;28;20050;-86
2021/09/02 04:55:36;;;;;;;9.75;4.95;;;;;;;30.03;28.63;98784.69;5071815;28;20032;-86
2021/09/02 04:58:04;;;;;;;8.63;5.60;;;;;;;30.01;28.72;98793.63;5086667;28;20035;-85
2021/09/02 05:00:30;;;;;;;9.23;6.60;;;;;;;30.02;28.56;98792.41;5089619;28;20122;-86
2021/09/02 05:02:56;;;;;;;9.57;6.20;;;;;;;29.77;29.04;98788.84;5089013;28;20035;-87
2021/09/02 05:05:23;;;;;;;8.30;5.90;;;;;;;29.84;29.04;98797.91;5088928;28;20089;-86
2021/09/02 05:07:49;;;;;;;8.48;6.07;;;;;;;29.47;29.58;98793.06;5087738;28;20055;-86
2021/09/02 05:10:15;;;;;;;10.32;6.18;;;;;;;29.31;29.93;98790.34;5089457;28;20040;-84
2021/09/02 05:12:41;;;;;;;8.30;5.65;;;;;;;29.84;29.19;98794.25;5086624;28;20059;-83
2021/09/02 05:15:07;;;;;;;10.57;6.50;;;;;;;30.42;28.41;98792.63;5086999;28;20083;-85
2021/09/02 05:17:33;;;;;;;7.85;5.53;;;;;;;30.05;28.72;98796.38;5062898;28;20408;-84
2021/09/02 05:19:59;;;;;;;9.15;5.97;;;;;;;30.19;28.73;98807.19;5082899;28;20083;-85
2021/09/02 05:22:25;;;;;;;7.85;5.63;;;;;;;30.60;28.34;98809.75;5088970;28;20040;-84
2021/09/02 05:24:51;;;;;;;10.18;6.80;;;;;;;30.43;28.51;98810.41;5084212;28;20036;-84
2021/09/02 05:27:18;;;;;;;8.25;5.70;;;;;;;30.27;28.35;98810.56;5092503;28;20040;-84
2021/09/02 05:29:44;;;;;;;10.55;6.20;;;;;;;30.53;28.02;98812.84;5092520;28;20036;-86
2021/09/02 05:32:10;;;;;;;11.02;7.13;;;;;;;29.74;29.42;98813.16;5094484;28;20039;-86
2021/09/02 05:34:36;;;;;;;11.02;6.68;;;;;;;30.58;28.05;98815.09;5096161;28;20036;-86
2021/09/02 05:37:03;;;;;;;8.35;6.25;;;;;;;30.69;27.76;98806.22;5088504;28;20103;-86
2021/09/02 05:39:29;;;;;;;10.25;7.38;;;;;;;30.81;27.77;98810.22;5090272;28;20041;-86
2021/09/02 05:41:55;;;;;;;11.05;6.88;;;;;;;31.02;27.53;98807.38;5096237;28;20032;-86
2021/09/02 05:44:21;;;;;;;12.32;6.80;;;;;;;31.00;27.84;98811.94;5080641;28;20040;-86
2021/09/02 05:46:47;;;;;;;8.00;5.50;;;;;;;30.94;27.59;98813.78;5078986;28;20039;-86
2021/09/02 05:49:13;;;;;;;9.20;5.57;;;;;;;31.49;27.45;98815.66;5085092;28;20430;-86
2021/09/02 05:51:40;;;;;;;7.68;5.05;;;;;;;31.53;27.58;98813.47;5094335;28;20044;-86
2021/09/02 05:54:06;;;;;;;7.78;5.30;;;;;;;30.82;27.89;98818.25;5095983;28;20032;-86
2021/09/02 05:56:32;;;;;;;7.47;6.03;;;;;;;31.01;27.92;98822.03;5092788;28;20028;-86
2021/09/02 05:58:58;;;;;;;9.68;6.07;;;;;;;30.85;28.58;98808.84;5084169;28;20032;-86
2021/09/02 06:01:24;;;;;;;8.95;5.43;;;;;;;31.04;28.45;98818.28;5092974;28;20036;-86
2021/09/02 06:03:50;;;;;;;11.15;7.30;;;;;;;30.98;27.65;98815.25;5085429;28;20743;-86
2021/09/02 06:06:16;;;;;;;8.35;5.85;;;;;;;31.15;28.12;98819.44;5094640;28;20123;-86
2021/09/02 06:08:42;;;;;;;7.88;6.05;;;;;;;31.21;27.67;98825.28;5087832;28;20383;-85
2021/09/02 06:11:08;;;;;;;7.45;5.82;;;;;;;31.05;28.00;98831.19;5077377;28;20024;-86
2021/09/02 06:13:34;;;;;;;9.18;6.28;;;;;;;31.10;27.66;98820.03;5087316;28;20032;-86
2021/09/02 06:16:01;;;;;;;8.60;5.90;;;;;;;31.18;27.52;98829.06;5091884;28;20043;-86
2021/09/02 06:18:28;;;;;;;7.68;5.65;;;;;;;31.19;27.98;98830.63;5093611;28;20102;-86
2021/09/02 06:20:55;;;;;;;7.53;5.70;;;;;;;31.33;27.69;98830.06;5094532;28;20038;-86
2021/09/02 06:23:21;;;;;;;9.18;5.78;;;;;;;31.02;27.77;98821.56;5088124;28;20059;-86
2021/09/02 06:25:47;;;;;;;8.90;6.22;;;;;;;31.35;27.18;98836.88;5086820;28;20050;-86
2021/09/02 06:28:13;;;;;;;6.88;5.43;;;;;;;31.78;26.94;98840.84;5090117;28;20511;-86
2021/09/02 06:30:40;;;;;;;7.00;5.00;;;;;;;31.61;26.84;98837.47;5084631;28;20035;-86
2021/09/02 06:33:06;;;;;;;8.70;5.47;;;;;;;31.29;27.89;98837.94;5084812;28;20036;-86
2021/09/02 06:35:32;;;;;;;9.90;6.32;;;;;;;31.05;28.03;98831.19;5093171;28;20034;-86
2021/09/02 06:37:58;;;;;;;6.95;5.55;;;;;;;31.28;27.72;98842.03;5079203;28;20115;-86
2021/09/02 06:40:24;;;;;;;8.32;5.72;;;;;;;31.30;27.64;98840.31;5082844;28;20551;-86
2021/09/02 06:42:51;;;;;;;9.75;6.65;;;;;;;31.30;27.66;98845.19;5074329;28;20073;-85
2021/09/02 06:45:17;;;;;;;6.97;5.72;;;;;;;31.08;27.82;98842.41;5074659;28;20040;-86
2021/09/02 06:47:44;;;;;;;7.82;5.63;;;;;;;30.83;28.26;98848.19;5086740;28;20066;-85
2021/09/02 06:50:12;;;;;;;6.35;5.03;;;;;;;31.30;27.36;98853.69;5084473;28;20391;-86
2021/09/02 06:52:39;;;;;;;9.70;5.88;;;;;;;31.35;27.18;98853.91;5090158;28;20029;-85
2021/09/02 06:55:07;;;;;;;7.55;6.00;;;;;;;31.05;27.59;98866.03;5080764;28;20070;-86
2021/09/02 06:57:34;;;;;;;8.10;6.07;;;;;;;30.75;28.59;98864.69;5093145;28;20032;-85
2021/09/02 07:00:00;;;;;;;8.57;6.10;;;;;;;30.73;28.13;98870.03;5091512;28;20113;-86
2021/09/02 07:02:27;;;;;;;7.50;5.40;;;;;;;31.18;27.93;98866.72;5091919;28;20498;-86
2021/09/02 07:04:53;;;;;;;6.30;4.80;;;;;;;31.68;27.31;98873.31;5084835;28;20033;-86
2021/09/02 07:07:19;;;;;;;7.00;4.70;;;;;;;31.71;27.19;98875.22;5074206;28;20037;-86
2021/09/02 07:09:45;;;;;;;6.75;5.00;;;;;;;31.33;27.83;98869.81;5092125;28;20042;-86
2021/09/02 07:12:11;;;;;;;5.32;3.83;;;;;;;32.18;26.87;98870.03;5080629;28;20024;-86
2021/09/02 07:14:37;;;;;;;5.95;4.63;;;;;;;32.11;26.67;98881.69;5080641;28;20483;-85
2021/09/02 07:17:05;;;;;;;5.47;3.90;;;;;;;31.87;27.07;98881.44;5072026;28;20043;-86
2021/09/02 07:19:31;;;;;;;4.35;3.67;;;;;;;32.27;27.24;98883.47;5091981;28;20102;-86
2021/09/02 07:21:58;;;;;;;6.60;3.83;;;;;;;31.78;27.21;98886.28;5091665;28;20042;-86
2021/09/02 07:24:24;;;;;;;4.05;3.42;;;;;;;31.80;26.91;98892.28;5093049;28;20031;-85
2021/09/02 07:26:51;;;;;;;7.20;4.13;;;;;;;31.61;27.08;98891.44;5093740;28;20035;-85
2021/09/02 07:29:17;;;;;;;4.65;3.72;;;;;;;30.76;28.40;98896.66;5092861;28;20044;-85
2021/09/02 07:31:44;;;;;;;6.60;4.32;;;;;;;30.88;28.95;98901.50;5090129;28;20062;-85
2021/09/02 07:34:10;;;;;;;8.43;4.65;;;;;;;31.32;28.28;98899.47;5092232;28;20028;-86
2021/09/02 07:36:37;;;;;;;7.50;4.30;;;;;;;30.98;28.21;98899.53;5093836;28;20042;-86
2021/09/02 07:39:05;;;;;;;5.60;3.95;;;;;;;31.34;28.35;98897.72;5092797;28;20462;-85
2021/09/02 07:41:31;;;;;;;4.97;3.83;;;;;;;31.60;27.55;98898.34;5060708;28;20068;-86
2021/09/02 07:43:57;;;;;;;4.03;3.20;;;;;;;32.58;27.17;98895.53;5091918;28;20028;-86
2021/09/02 07:46:23;;;;;;;4.07;3.22;;;;;;;32.84;25.30;98896.78;5093891;28;20036;-86
2021/09/02 07:48:50;;;;;;;5.15;3.60;;;;;;;32.81;25.21;98900.59;5092353;28;20395;-86
2021/09/02 07:51:17;;;;;;;4.50;3.30;;;;;;;32.36;26.97;98907.00;5091487;28;20028;-85
2021/09/02 07:53:43;;;;;;;5.80;4.30;;;;;;;31.80;26.78;98910.13;5069762;28;20120;-85
2021/09/02 07:56:10;;;;;;;7.47;4.75;;;;;;;30.80;27.58;98911.50;5092427;28;20425;-85
2021/09/02 07:58:36;;;;;;;5.10;4.10;;;;;;;31.11;28.35;98915.22;5087562;28;20036;-85
2021/09/02 08:01:03;;;;;;;5.68;3.90;;;;;;;31.07;28.08;98914.56;5092894;28;20028;-85
2021/09/02 08:03:29;;;;;;;6.85;4.05;;;;;;;30.75;28.58;98915.72;5082838;28;20419;-86
2021/09/02 08:05:55;;;;;;;6.47;4.72;;;;;;;30.78;27.62;98926.13;5081038;28;20055;-85
2021/09/02 08:08:22;;;;;;;8.68;4.07;;;;;;;31.26;27.44;98921.97;5092470;28;20484;-86
2021/09/02 08:10:49;;;;;;;5.43;3.83;;;;;;;32.05;27.17;98915.63;5093304;28;20043;-86
2021/09/02 08:13:16;;;;;;;4.00;3.58;;;;;;;32.18;27.09;98912.66;5092007;28;20109;-86
2021/09/02 08:15:42;;;;;;;5.53;4.00;;;;;;;32.46;26.79;98917.13;5093191;28;20040;-86
2021/09/02 08:18:09;;;;;;;4.07;3.35;;;;;;;32.57;25.69;98922.38;5090311;28;20093;-85
2021/09/02 08:20:36;;;;;;;5.57;3.60;;;;;;;31.90;25.12;98922.31;5074196;28;20107;-85
2021/09/02 08:23:02;;;;;;;4.68;3.63;;;;;;;31.68;25.66;98919.53;5093188;28;20024;-86
2021/09/02 08:25:28;;;;;;;6.32;3.60;;;;;;;31.24;27.38;98924.47;5092580;28;20039;-85
2021/09/02 08:27:55;;;;;;;3.85;3.20;;;;;;;31.18;26.70;98928.38;5073538;28;20113;-85
2021/09/02 08:30:26;;;;;;;4.40;3.47;;;;;;;31.42;26.87;98918.09;5090946;28;20102;-85
2021/09/02 08:32:52;;;;;;;5.65;3.60;;;;;;;31.18;28.33;98934.81;5087998;28;20034;-86
2021/09/02 08:35:25;;;;;;;4.00;3.00;;;;;;;31.56;27.15;98920.41;5093550;28;20090;-86
2021/09/02 08:37:54;;;;;;;4.72;3.40;;;;;;;31.79;27.17;98930.47;5090950;28;20028;-86
2021/09/02 08:40:23;;;;;;;3.95;3.58;;;;;;;31.97;26.85;98937.03;5087917;28;20032;-86
2021/09/02 08:42:50;;;;;;;3.92;3.53;;;;;;;31.43;26.23;98936.75;5091670;28;20036;-85
2021/09/02 08:45:17;;;;;;;7.45;3.42;;;;;;;31.38;26.25;98931.66;5092100;28;20415;-86
2021/09/02 08:47:46;;;;;;;5.13;3.10;;;;;;;31.09;27.89;98934.75;5084652;28;20085;-85
2021/09/02 08:50:14;;;;;;;3.65;3.08;;;;;;;32.04;25.88;98913.25;5075453;28;20454;-86
2021/09/02 08:52:41;;;;;;;3.70;3.10;;;;;;;32.03;24.75;98917.34;5091175;28;20036;-86
2021/09/02 08:55:07;;;;;;;4.57;3.45;;;;;;;30.47;28.02;98919.56;5092996;28;20312;-86
2021/09/02 08:57:33;;;;;;;4.43;3.42;;;;;;;31.15;26.62;98920.78;5081296;28;20041;-86
2021/09/02 08:59:59;;;;;;;4.00;3.42;;;;;;;32.36;26.71;98914.72;5090205;28;20036;-86
2021/09/02 09:02:28;;;;;;;3.80;3.13;;;;;;;32.56;24.98;98921.59;5089768;28;20040;-85
2021/09/02 09:05:06;;;;;;;4.20;3.80;;;;;;;31.64;25.62;98923.78;5095372;28;20059;-86
2021/09/02 09:07:40;;;;;;;4.63;3.50;;;;;;;31.59;27.39;98925.19;5088329;28;20430;-85
2021/09/02 09:10:18;;;;;;;4.38;3.97;;;;;;;31.99;25.74;98923.19;5094902;28;20035;-85
2021/09/02 09:12:46;;;;;;;7.53;4.18;;;;;;;32.35;24.88;98925.31;5076491;28;20032;-86
2021/09/02 09:15:33;;;;;;;5.45;3.83;;;;;;;32.38;24.86;98915.84;5095082;28;20117;-86
2021/09/02 09:18:15;;;;;;;4.57;3.40;;;;;;;32.34;25.19;98914.41;5095267;28;20028;-87
2021/09/02 09:20:41;;;;;;;4.15;3.42;;;;;;;32.50;24.73;98920.63;5095600;28;20442;-86
2021/09/02 09:23:08;;;;;;;5.53;3.53;;;;;;;32.65;24.78;98918.75;5095254;28;20020;-86
2021/09/02 09:25:34;;;;;;;5.93;4.05;;;;;;;31.49;26.96;98919.91;5096314;28;20063;-86
2021/09/02 09:28:01;;;;;;;8.15;3.50;;;;;;;31.84;24.96;98916.44;5095752;28;20028;-86
2021/09/02 09:30:33;;;;;;;4.97;3.85;;;;;;;31.87;24.50;98909.84;5093262;28;20040;-86
2021/09/02 09:33:03;;;;;;;3.83;3.30;;;;;;;32.50;24.23;98914.94;5089892;28;20032;-86
2021/09/02 09:35:31;;;;;;;3.75;3.30;;;;;;;32.60;24.41;98921.44;5095974;28;20043;-86
2021/09/02 09:38:15;;;;;;;4.47;3.20;;;;;;;32.42;26.30;98915.69;5095107;28;20024;-86
2021/09/02 09:40:44;;;;;;;3.72;2.88;;;;;;;32.18;26.22;98920.38;5096255;28;20028;-86
2021/09/02 09:43:13;;;;;;;3.42;2.85;;;;;;;32.14;26.27;98916.91;5072556;28;20032;-85
2021/09/02 09:45:52;;;;;;;2.72;2.50;;;;;;;32.25;25.03;98911.56;5091752;28;20032;-86
2021/09/02 09:48:33;;;;;;;3.50;3.10;;;;;;;32.03;25.19;98917.34;5091241;28;20036;-85
2021/09/02 09:51:07;;;;;;;3.58;3.15;;;;;;;31.82;25.77;98918.19;5096019;28;20028;-86
2021/09/02 09:53:35;;;;;;;3.45;2.75;;;;;;;32.16;25.99;98922.91;5094973;28;20042;-85
2021/09/02 09:56:01;;;;;;;3.20;2.65;;;;;;;32.42;24.37;98916.47;5094932;28;20040;-86
2021/09/02 09:58:28;;;;;;;3.88;2.72;;;;;;;32.74;25.47;98920.81;5094635;28;20047;-85
2021/09/02 10:00:57;;;;;;;5.38;2.85;;;;;;;32.16;24.66;98925.75;5094125;28;20403;-86
2021/09/02 10:03:23;;;;;;;3.72;2.80;;;;;;;31.62;25.99;98929.13;5090535;28;20507;-86
2021/09/02 10:05:50;;;;;;;3.30;3.00;;;;;;;31.65;26.62;98923.31;5095190;28;20076;-86
2021/09/02 10:08:17;;;;;;;2.83;2.53;;;;;;;31.93;26.90;98927.03;5093833;28;20519;-86
2021/09/02 10:10:43;;;;;;;3.30;2.58;;;;;;;32.34;25.94;98922.94;5093715;28;20028;-85
2021/09/02 10:13:11;;;;;;;2.75;2.30;;;;;;;32.60;24.80;98915.75;5092023;28;20028;-85
2021/09/02 10:15:37;;;;;;;3.67;2.40;;;;;;;32.59;23.84;98922.69;5093627;28;20032;-86
2021/09/02 10:18:03;;;;;;;3.15;2.85;;;;;;;31.74;26.48;98923.34;5091969;28;20028;-87
2021/09/02 10:20:34;;;;;;;3.50;2.15;;;;;;;32.25;26.92;98926.56;5074893;28;20078;-85
2021/09/02 10:23:02;;;;;;;3.70;2.03;;;;;;;32.34;25.75;98932.28;5082503;28;20050;-85
2021/09/02 10:25:34;;;;;;;3.45;3.15;;;;;;;32.09;26.66;98921.16;5095314;28;20051;-85
2021/09/02 10:28:17;;;;;;;2.50;2.30;;;;;;;32.39;25.11;98925.16;5093334;28;20035;-85
2021/09/02 10:30:55;;;;;;;2.83;2.10;;;;;;;33.30;24.76;98923.16;5093095;28;20039;-85
2021/09/02 10:33:33;;;;;;;3.33;2.38;;;;;;;33.84;23.67;98922.25;5090340;28;20035;-85
2021/09/02 10:36:20;;;;;;;3.55;1.83;;;;;;;32.57;23.74;98920.34;5072991;28;20380;-85
2021/09/02 10:38:49;;;;;;;5.03;2.97;;;;;;;32.67;23.67;98923.97;5064068;28;20052;-86
2021/09/02 10:41:34;;;;;;;2.72;1.98;;;;;;;33.39;23.67;98926.00;5088328;28;20491;-85
2021/09/02 10:44:00;;;;;;;2.92;2.40;;;;;;;32.07;25.47;98921.59;5079916;28;20071;-86
2021/09/02 10:46:51;;;;;;;2.63;2.20;;;;;;;33.52;22.95;98928.63;5076612;28;20035;-86
2021/09/02 10:49:28;;;;;;;2.20;2.00;;;;;;;33.04;23.90;98928.44;5085581;28;20415;-85
2021/09/02 10:51:58;;;;;;;3.17;2.22;;;;;;;33.01;24.12;98937.06;5094879;28;20020;-85
2021/09/02 10:54:32;;;;;;;3.72;2.13;;;;;;;32.62;22.86;98939.63;5089875;28;20032;-86
2021/09/02 10:57:12;;;;;;;3.65;2.50;;;;;;;32.23;24.70;98934.75;5073644;28;20546;-85
2021/09/02 10:59:53;;;;;;;3.53;2.45;;;;;;;32.08;25.36;98940.25;5093349;28;20434;-85
2021/09/02 11:02:22;;;;;;;3.05;2.00;;;;;;;32.60;23.92;98935.66;5092923;28;20036;-86
2021/09/02 11:05:07;;;;;;;5.20;2.28;;;;;;;33.28;22.90;98937.88;5093457;28;20034;-86
2021/09/02 11:07:37;;;;;;;2.83;2.05;;;;;;;33.29;24.16;98932.97;5094598;28;20028;-86
2021/09/02 11:10:11;;;;;;;2.65;2.33;;;;;;;32.77;22.86;98931.22;5094018;28;20027;-85
2021/09/02 11:12:38;;;;;;;3.35;2.13;;;;;;;33.54;23.06;98932.63;5093785;28;20063;-86
2021/09/02 11:15:05;;;;;;;2.72;1.95;;;;;;;32.50;23.06;98939.75;5090822;28;20472;-85
2021/09/02 11:17:31;;;;;;;3.05;2.65;;;;;;;32.12;23.66;98942.13;5093210;28;20040;-85
2021/09/02 11:19:57;;;;;;;3.95;2.33;;;;;;;31.45;24.32;98948.44;5088091;28;20095;-85
2021/09/02 11:22:23;;;;;;;2.63;2.35;;;;;;;30.70;26.35;98944.66;5094132;28;20483;-85
2021/09/02 11:24:51;;;;;;;2.40;2.20;;;;;;;31.61;24.59;98947.41;5091809;28;20020;-86
2021/09/02 11:27:31;;;;;;;2.70;2.50;;;;;;;31.65;23.80;98940.34;5094149;28;20125;-86
2021/09/02 11:30:19;;;;;;;3.75;2.20;;;;;;;32.62;23.43;98953.84;5074198;28;20064;-86
2021/09/02 11:32:59;;;;;;;2.08;1.88;;;;;;;32.97;23.20;98953.53;5088765;28;20115;-86
2021/09/02 11:35:26;;;;;;;5.35;2.50;;;;;;;32.26;24.14;98956.56;5092227;28;20039;-86
2021/09/02 11:37:52;;;;;;;2.30;2.10;;;;;;;32.41;23.86;98963.25;5072456;28;20494;-86